Time;durP1;ratioP1;P1;durP2;ratioP2;P2;SDS_P1;SDS_P2;PMS_P1;PMS_P2;Temp;Humidity;BMP_temperature;BMP_pressure;BME280_temperature;BME280_humidity;BME280_pressure;Samples;Min_cycle;Max_cycle;Signal;HPM_P1;HPM_P2
2022/09/06 00:00:13;;;;;;;5.05;3.30;;;;;;;18.70;79.20;100558.75;5117901;28;20063;-68
2022/09/06 00:02:40;;;;;;;5.90;3.25;;;;;;;18.66;79.30;100562.03;5117794;28;20034;-68
2022/09/06 00:05:07;;;;;;;8.45;3.15;;;;;;;18.58;79.67;100551.41;5118691;28;20031;-68
2022/09/06 00:07:33;;;;;;;8.82;3.53;;;;;;;18.45;80.01;100555.66;5102641;28;20023;-68
2022/09/06 00:09:58;;;;;;;8.80;3.55;;;;;;;18.40;80.38;100551.88;5117252;28;20317;-68
2022/09/06 00:12:24;;;;;;;8.57;3.13;;;;;;;18.42;80.60;100553.34;5118873;28;20020;-68
2022/09/06 00:14:50;;;;;;;5.88;3.22;;;;;;;18.53;80.69;100560.03;5117636;28;20046;-68
2022/09/06 00:17:15;;;;;;;7.10;3.50;;;;;;;18.71;79.46;100549.69;5117826;28;20047;-68
2022/09/06 00:19:41;;;;;;;6.90;3.63;;;;;;;18.92;78.12;100558.72;5118423;28;20102;-68
2022/09/06 00:22:07;;;;;;;9.18;3.85;;;;;;;18.92;77.45;100553.38;5117871;28;20072;-68
2022/09/06 00:24:33;;;;;;;6.57;3.38;;;;;;;18.88;77.91;100555.63;5119088;28;20098;-68
2022/09/06 00:26:58;;;;;;;6.18;3.00;;;;;;;18.71;78.33;100548.84;5117576;28;20028;-68
2022/09/06 00:29:24;;;;;;;5.07;2.83;;;;;;;18.65;79.13;100553.16;5117986;28;20046;-68
2022/09/06 00:31:49;;;;;;;5.68;3.03;;;;;;;18.55;79.02;100541.06;5117531;28;20030;-68
2022/09/06 00:34:15;;;;;;;8.25;3.05;;;;;;;18.65;79.15;100550.47;5118464;28;20047;-68
2022/09/06 00:36:40;;;;;;;4.68;2.40;;;;;;;18.78;78.33;100555.13;5117476;28;20024;-68
2022/09/06 00:39:05;;;;;;;5.00;2.95;;;;;;;18.87;77.76;100548.59;5117063;28;20023;-68
2022/09/06 00:41:31;;;;;;;3.88;2.67;;;;;;;18.84;77.88;100553.53;5118954;28;20031;-68
2022/09/06 00:43:56;;;;;;;6.90;2.63;;;;;;;18.95;77.29;100559.16;5121225;28;20039;-68
2022/09/06 00:46:26;;;;;;;6.93;3.30;;;;;;;19.00;77.24;100556.72;5121425;28;20035;-68
2022/09/06 00:48:56;;;;;;;8.35;2.58;;;;;;;19.05;76.88;100556.13;5122287;28;20316;-68
2022/09/06 00:51:25;;;;;;;8.00;2.67;;;;;;;19.09;76.26;100552.84;5121251;28;20046;-68
2022/09/06 00:53:51;;;;;;;7.78;2.75;;;;;;;19.22;75.59;100554.78;5122300;28;20031;-68
2022/09/06 00:56:16;;;;;;;20.95;3.70;;;;;;;19.23;75.42;100559.13;5102417;28;20027;-68
2022/09/06 00:58:43;;;;;;;7.82;3.45;;;;;;;19.14;75.96;100563.84;5121811;28;20035;-68
2022/09/06 01:01:08;;;;;;;7.15;3.55;;;;;;;19.29;75.42;100558.34;5121521;28;20126;-68
2022/09/06 01:03:35;;;;;;;9.70;3.95;;;;;;;19.33;75.74;100556.91;5121028;28;20035;-68
2022/09/06 01:06:19;;;;;;;8.70;3.75;;;;;;;19.34;76.19;100557.72;5121802;28;20537;-68
2022/09/06 01:09:06;;;;;;;6.60;3.55;;;;;;;19.36;75.72;100548.44;5121472;28;20091;-68
2022/09/06 01:11:57;;;;;;;7.70;3.50;;;;;;;19.40;75.25;100557.75;5122360;28;20031;-68
2022/09/06 01:14:59;;;;;;;8.45;3.90;;;;;;;19.38;75.40;100559.81;5117882;28;20039;-68
2022/09/06 01:17:53;;;;;;;7.47;3.83;;;;;;;19.42;73.37;100561.09;5136261;27;20343;-68
2022/09/06 01:20:41;;;;;;;7.82;4.43;;;;;;;19.35;74.94;100556.72;5121198;28;20031;-68
2022/09/06 01:23:28;;;;;;;13.05;3.83;;;;;;;19.35;75.15;100559.38;5121634;28;20115;-68
2022/09/06 01:26:23;;;;;;;7.35;3.85;;;;;;;19.27;75.15;100567.63;5117801;28;20072;-68
2022/09/06 01:28:50;;;;;;;10.13;3.70;;;;;;;19.28;74.76;100564.72;5119873;28;20050;-68
2022/09/06 01:31:39;;;;;;;7.10;4.00;;;;;;;19.30;74.70;100562.69;5122030;28;20082;-68
2022/09/06 01:34:04;;;;;;;7.30;4.05;;;;;;;19.32;74.74;100562.47;5101586;28;20081;-68
2022/09/06 01:36:39;;;;;;;8.73;3.85;;;;;;;19.37;74.79;100555.47;5121518;28;20019;-68
2022/09/06 01:39:05;;;;;;;8.10;3.85;;;;;;;19.42;74.08;100555.72;5121682;28;20059;-68
2022/09/06 01:41:31;;;;;;;7.70;3.90;;;;;;;19.38;74.37;100546.41;5120995;28;20387;-68
2022/09/06 01:43:58;;;;;;;8.35;3.80;;;;;;;19.35;74.36;100532.53;5119762;28;20237;-68
2022/09/06 01:46:37;;;;;;;7.10;3.85;;;;;;;19.39;74.04;100540.00;5121068;28;20031;-68
2022/09/06 01:49:39;;;;;;;7.75;4.03;;;;;;;19.53;73.28;100527.47;5118701;28;20059;-68
2022/09/06 01:52:32;;;;;;;5.93;3.45;;;;;;;19.35;73.67;100527.16;5119233;28;20784;-68
2022/09/06 01:55:21;;;;;;;4.85;3.47;;;;;;;19.23;73.51;100531.44;5120422;28;20035;-68
2022/09/06 01:57:55;;;;;;;9.32;4.00;;;;;;;19.29;73.24;100525.28;5098863;28;20034;-68
2022/09/06 02:00:23;;;;;;;;;;;;;;;19.31;73.15;100526.75;5117658;28;20226;-68
2022/09/06 02:02:52;;;;;;;7.10;4.00;;;;;;;19.10;74.01;100524.16;5120447;28;20187;-68
2022/09/06 02:05:23;;;;;;;7.78;3.67;;;;;;;19.03;74.37;100528.66;5120092;28;20028;-68
2022/09/06 02:07:54;;;;;;;8.90;4.13;;;;;;;19.06;74.67;100526.41;5121128;27;20225;-68
2022/09/06 02:10:36;;;;;;;6.47;3.78;;;;;;;19.09;73.22;100523.34;5120282;28;20118;-68
2022/09/06 02:13:06;;;;;;;5.95;3.60;;;;;;;18.92;72.27;100519.31;5120528;28;20043;-68
2022/09/06 02:15:35;;;;;;;8.65;3.88;;;;;;;18.81;72.75;100519.88;5119716;28;20032;-68
2022/09/06 02:18:06;;;;;;;5.18;3.55;;;;;;;18.84;74.55;100513.28;5098937;28;20051;-68
2022/09/06 02:20:35;;;;;;;8.88;4.05;;;;;;;18.79;75.16;100520.06;5119962;28;20377;-68
2022/09/06 02:23:07;;;;;;;8.35;4.63;;;;;;;18.85;73.83;100522.97;5120105;28;20028;-68
2022/09/06 02:25:44;;;;;;;7.85;3.70;;;;;;;18.83;73.18;100523.19;5119613;28;20065;-68
2022/09/06 02:28:09;;;;;;;7.88;3.80;;;;;;;18.80;74.44;100523.56;5117154;28;20035;-69
2022/09/06 02:30:41;;;;;;;8.07;3.92;;;;;;;18.85;73.85;100523.81;5118747;28;20046;-68
2022/09/06 02:33:12;;;;;;;5.15;3.70;;;;;;;18.76;75.13;100525.81;5119338;28;20267;-68
2022/09/06 02:35:47;;;;;;;5.15;3.45;;;;;;;18.70;71.36;100523.88;5101423;28;20214;-68
2022/09/06 02:38:14;;;;;;;9.13;3.72;;;;;;;18.45;71.52;100528.00;5119877;28;20037;-68
2022/09/06 02:40:42;;;;;;;11.23;4.18;;;;;;;18.39;74.83;100526.09;5118923;28;20055;-68
2022/09/06 02:43:07;;;;;;;17.27;4.22;;;;;;;18.38;74.79;100525.25;5119486;28;20031;-68
2022/09/06 02:45:33;;;;;;;10.52;4.25;;;;;;;18.31;74.62;100524.38;5119429;28;20042;-68
2022/09/06 02:47:58;;;;;;;6.88;3.70;;;;;;;18.29;74.32;100520.22;5118665;28;20212;-68
2022/09/06 02:50:24;;;;;;;5.90;3.22;;;;;;;18.31;73.36;100521.69;5119058;28;20063;-68
2022/09/06 02:53:02;;;;;;;8.45;3.90;;;;;;;18.38;72.93;100519.91;5119716;28;20051;-68
2022/09/06 02:55:27;;;;;;;8.18;3.47;;;;;;;18.32;73.05;100525.22;5118940;28;20094;-68
2022/09/06 02:57:53;;;;;;;8.35;3.70;;;;;;;18.08;73.33;100518.41;5119769;28;20046;-68
2022/09/06 03:00:18;;;;;;;6.60;4.10;;;;;;;17.92;74.11;100518.66;5119540;28;20045;-68
2022/09/06 03:02:43;;;;;;;8.38;3.92;;;;;;;17.84;74.23;100525.78;5118638;28;20027;-68
2022/09/06 03:05:09;;;;;;;9.90;4.32;;;;;;;17.79;74.86;100520.19;5118724;28;20062;-68
2022/09/06 03:07:35;;;;;;;10.52;4.38;;;;;;;17.83;75.16;100525.97;5118442;28;20237;-68
2022/09/06 03:10:01;;;;;;;9.57;4.10;;;;;;;17.86;74.55;100530.97;5118782;28;20045;-69
2022/09/06 03:12:26;;;;;;;9.18;3.67;;;;;;;17.88;73.24;100525.41;5119043;28;20056;-68
2022/09/06 03:14:52;;;;;;;7.20;3.70;;;;;;;17.98;73.06;100539.31;5118644;28;20035;-68
2022/09/06 03:17:17;;;;;;;9.30;3.97;;;;;;;17.96;73.15;100531.47;5119613;28;20027;-68
2022/09/06 03:19:43;;;;;;;12.15;4.53;;;;;;;17.99;75.15;100544.50;5119059;28;20054;-68
2022/09/06 03:22:08;;;;;;;8.13;4.10;;;;;;;18.07;72.60;100543.53;5119559;28;20027;-68
2022/09/06 03:24:33;;;;;;;6.95;3.88;;;;;;;18.00;70.81;100548.00;5118834;28;20043;-68
2022/09/06 03:26:59;;;;;;;8.00;3.45;;;;;;;17.70;71.20;100517.81;5119592;28;20041;-68
2022/09/06 03:29:24;;;;;;;6.32;3.88;;;;;;;17.74;72.66;100538.66;5117984;28;20028;-68
2022/09/06 03:31:50;;;;;;;9.43;4.60;;;;;;;17.67;72.94;100542.25;5118740;28;20028;-68
2022/09/06 03:34:15;;;;;;;8.90;4.07;;;;;;;17.70;73.61;100547.28;5118632;28;20038;-69
2022/09/06 03:36:41;;;;;;;6.53;4.50;;;;;;;17.77;73.98;100548.16;5099659;28;20027;-68
2022/09/06 03:39:06;;;;;;;8.90;4.25;;;;;;;17.71;73.75;100554.28;5118717;28;20041;-68
2022/09/06 03:41:32;;;;;;;9.65;4.88;;;;;;;17.65;75.58;100536.22;5119404;28;20043;-68
2022/09/06 03:43:57;;;;;;;14.95;4.15;;;;;;;17.60;74.49;100539.47;5118629;28;20329;-68
2022/09/06 03:46:22;;;;;;;11.43;4.45;;;;;;;17.74;73.14;100554.75;5119481;28;20034;-68
2022/09/06 03:48:48;;;;;;;7.90;4.15;;;;;;;17.79;73.41;100548.81;5118541;28;20083;-68
2022/09/06 03:51:14;;;;;;;11.10;4.57;;;;;;;17.77;74.82;100548.16;5118821;28;20035;-68
2022/09/06 03:53:40;;;;;;;10.07;4.53;;;;;;;17.89;74.90;100545.81;5118713;28;20111;-68
2022/09/06 03:56:05;;;;;;;9.88;4.22;;;;;;;17.96;73.71;100554.75;5117560;28;20238;-68
2022/09/06 03:58:32;;;;;;;10.07;4.50;;;;;;;17.98;73.86;100555.41;5117572;28;20024;-68
2022/09/06 04:01:05;;;;;;;12.02;4.45;;;;;;;17.95;75.68;100555.78;5118551;28;20035;-68
2022/09/06 04:03:31;;;;;;;14.35;5.25;;;;;;;17.94;75.34;100556.81;5116722;28;20325;-68
2022/09/06 04:05:57;;;;;;;12.38;4.80;;;;;;;17.93;74.96;100558.66;5118003;28;20026;-68
2022/09/06 04:08:22;;;;;;;10.68;5.68;;;;;;;17.94;75.79;100565.66;5118608;28;20023;-68
2022/09/06 04:10:51;;;;;;;14.15;6.88;;;;;;;17.93;76.55;100560.50;5117303;28;20036;-68
2022/09/06 04:13:17;;;;;;;15.10;5.75;;;;;;;18.01;76.57;100568.41;5118464;28;20228;-68
2022/09/06 04:15:45;;;;;;;18.20;5.72;;;;;;;18.04;77.12;100566.19;5119471;28;20024;-68
2022/09/06 04:18:11;;;;;;;18.33;5.85;;;;;;;18.11;77.27;100576.97;5122838;28;20242;-68
2022/09/06 04:20:36;;;;;;;18.05;5.75;;;;;;;18.21;76.93;100576.66;5122189;28;20243;-68
2022/09/06 04:23:02;;;;;;;14.50;4.57;;;;;;;18.33;75.94;100578.63;5122894;28;20033;-68
2022/09/06 04:25:28;;;;;;;13.60;5.25;;;;;;;18.40;75.82;100571.47;5121546;28;20031;-68
2022/09/06 04:27:54;;;;;;;16.08;5.45;;;;;;;18.53;75.65;100570.78;5122542;28;20255;-68
2022/09/06 04:30:19;;;;;;;10.50;4.57;;;;;;;18.46;76.44;100577.94;5121271;28;20032;-68
2022/09/06 04:32:44;;;;;;;12.77;4.63;;;;;;;18.40;76.97;100576.84;5121628;28;20027;-68
2022/09/06 04:35:10;;;;;;;16.45;5.38;;;;;;;18.43;76.75;100570.28;5122719;28;20031;-68
2022/09/06 04:37:35;;;;;;;10.80;4.28;;;;;;;18.62;76.35;100583.06;5121423;28;20027;-68
2022/09/06 04:40:01;;;;;;;7.93;4.97;;;;;;;18.56;76.12;100570.38;5104443;28;20043;-68
2022/09/06 04:42:26;;;;;;;10.82;4.88;;;;;;;18.62;75.73;100575.00;5123037;28;20054;-68
2022/09/06 04:44:52;;;;;;;10.68;5.47;;;;;;;18.60;76.16;100576.19;5121039;27;20047;-68
2022/09/06 04:47:18;;;;;;;12.27;5.03;;;;;;;18.66;75.89;100575.44;5122201;28;20065;-68
2022/09/06 04:49:44;;;;;;;10.57;5.05;;;;;;;18.56;76.47;100575.75;5121211;28;20093;-68
2022/09/06 04:52:10;;;;;;;8.10;5.05;;;;;;;18.51;77.35;100570.13;5121419;28;20027;-68
2022/09/06 04:54:36;;;;;;;12.90;5.28;;;;;;;18.66;76.93;100570.91;5122248;28;20352;-68
2022/09/06 04:57:01;;;;;;;23.55;6.38;;;;;;;18.89;76.16;100573.38;5121523;28;20023;-68
2022/09/06 04:59:27;;;;;;;12.68;5.63;;;;;;;18.94;75.94;100570.94;5118226;28;20100;-68
2022/09/06 05:01:52;;;;;;;13.60;5.53;;;;;;;18.80;76.57;100563.81;5121178;28;20244;-68
2022/09/06 05:04:18;;;;;;;15.07;5.20;;;;;;;18.75;77.09;100566.25;5120838;28;20043;-68
2022/09/06 05:06:44;;;;;;;10.27;5.07;;;;;;;18.83;77.29;100563.44;5122620;28;20262;-68
2022/09/06 05:09:09;;;;;;;12.48;4.95;;;;;;;18.91;77.55;100552.53;5121206;28;20329;-68
2022/09/06 05:11:35;;;;;;;12.60;5.70;;;;;;;19.05;77.11;100558.81;5122160;28;20038;-69
2022/09/06 05:14:00;;;;;;;13.50;5.30;;;;;;;19.20;76.46;100556.00;5121538;28;20038;-68
2022/09/06 05:16:26;;;;;;;11.35;5.38;;;;;;;19.59;75.05;100555.41;5121147;28;20028;-68
2022/09/06 05:18:51;;;;;;;10.95;6.07;;;;;;;19.67;75.26;100556.03;5121592;28;20039;-68
2022/09/06 05:21:17;;;;;;;10.27;5.15;;;;;;;20.15;73.78;100550.59;5102435;28;20092;-68
2022/09/06 05:23:42;;;;;;;11.52;5.32;;;;;;;20.49;71.88;100546.94;5120495;28;20046;-68
2022/09/06 05:26:08;;;;;;;9.07;5.63;;;;;;;20.84;70.51;100557.50;5121413;28;20375;-68
2022/09/06 05:28:33;;;;;;;8.90;5.38;;;;;;;21.07;69.19;100552.47;5121031;28;20048;-68
2022/09/06 05:31:06;;;;;;;13.75;6.03;;;;;;;21.22;68.54;100550.41;5120254;28;20099;-68
2022/09/06 05:33:32;;;;;;;12.57;6.70;;;;;;;20.71;69.54;100553.75;5121371;28;20055;-69
2022/09/06 05:35:57;;;;;;;13.10;6.40;;;;;;;20.79;70.26;100549.19;5120249;28;20098;-68
2022/09/06 05:38:24;;;;;;;13.82;6.25;;;;;;;21.03;69.52;100551.25;5120532;28;20077;-68
2022/09/06 05:40:49;;;;;;;12.77;6.40;;;;;;;21.25;68.24;100547.28;5121122;28;20087;-68
2022/09/06 05:43:15;;;;;;;10.63;6.10;;;;;;;21.45;67.72;100557.97;5120010;27;20046;-69
2022/09/06 05:45:40;;;;;;;11.48;6.43;;;;;;;21.81;66.26;100543.09;5120873;28;20045;-68
2022/09/06 05:48:07;;;;;;;12.60;6.30;;;;;;;21.90;66.00;100552.59;5120592;28;20054;-68
2022/09/06 05:50:33;;;;;;;12.73;6.10;;;;;;;21.80;65.86;100544.13;5120265;28;20317;-68
2022/09/06 05:52:58;;;;;;;14.10;6.63;;;;;;;22.11;65.74;100552.31;5121006;28;20051;-68
2022/09/06 05:55:24;;;;;;;12.60;6.13;;;;;;;22.44;63.91;100554.75;5120581;28;20047;-69
2022/09/06 05:57:49;;;;;;;13.05;6.25;;;;;;;22.28;63.31;100550.72;5120483;28;20035;-68
2022/09/06 06:00:15;;;;;;;10.48;5.95;;;;;;;22.63;62.13;100556.47;5120198;28;20049;-69
2022/09/06 06:02:41;;;;;;;10.43;5.93;;;;;;;22.86;61.06;100541.53;5120013;28;20054;-68
2022/09/06 06:05:07;;;;;;;9.10;4.85;;;;;;;23.17;59.76;100554.13;5121506;28;20031;-68
2022/09/06 06:07:32;;;;;;;15.25;5.75;;;;;;;23.59;58.48;100543.47;5120505;28;20042;-69
2022/09/06 06:09:57;;;;;;;11.57;6.05;;;;;;;23.82;57.55;100538.16;5088008;28;20032;-68
2022/09/06 06:12:23;;;;;;;10.82;6.30;;;;;;;23.72;57.25;100518.94;5080085;28;20043;-68
2022/09/06 06:14:48;;;;;;;12.88;5.25;;;;;;;24.04;56.55;100530.38;5079112;28;20037;-68
2022/09/06 06:17:14;;;;;;;14.88;6.55;;;;;;;24.32;56.10;100536.00;5079584;28;20036;-68
2022/09/06 06:19:39;;;;;;;13.80;6.60;;;;;;;24.65;55.00;100535.44;5078522;28;20040;-68
2022/09/06 06:22:05;;;;;;;11.27;5.88;;;;;;;24.74;54.27;100534.03;5079932;28;20077;-69
2022/09/06 06:24:30;;;;;;;8.35;5.80;;;;;;;24.74;53.58;100539.44;5078878;28;20048;-69
2022/09/06 06:26:55;;;;;;;10.55;6.25;;;;;;;24.69;53.68;100527.66;5080474;28;20031;-68
2022/09/06 06:29:21;;;;;;;9.68;5.50;;;;;;;24.77;53.64;100538.13;5078301;28;20340;-69
2022/09/06 06:31:46;;;;;;;15.10;5.90;;;;;;;24.98;53.25;100539.47;5077575;28;20028;-68
2022/09/06 06:34:12;;;;;;;12.00;5.47;;;;;;;25.01;52.89;100522.75;5079369;28;20040;-68
2022/09/06 06:36:37;;;;;;;9.05;5.43;;;;;;;25.17;52.12;100532.03;5078578;28;20046;-69
2022/09/06 06:39:05;;;;;;;9.23;4.95;;;;;;;25.37;51.39;100536.00;5077750;28;20032;-68
2022/09/06 06:41:31;;;;;;;7.63;5.38;;;;;;;25.17;52.39;100538.28;5079287;28;20040;-69
2022/09/06 06:43:59;;;;;;;9.52;4.85;;;;;;;24.58;53.88;100540.13;5078370;28;20081;-69
2022/09/06 06:46:27;;;;;;;8.13;5.18;;;;;;;24.82;52.96;100530.13;5078536;28;20044;-69
2022/09/06 06:48:54;;;;;;;7.43;4.85;;;;;;;25.14;52.13;100528.75;5078880;28;20355;-68
2022/09/06 06:51:21;;;;;;;10.52;4.63;;;;;;;25.44;51.12;100531.25;5078326;28;20028;-69
2022/09/06 06:53:47;;;;;;;10.55;5.05;;;;;;;25.95;49.16;100529.53;5076097;28;20044;-69
2022/09/06 06:56:15;;;;;;;9.98;5.68;;;;;;;26.37;48.27;100529.22;5079079;28;20030;-68
2022/09/06 06:58:41;;;;;;;8.93;4.88;;;;;;;26.48;47.08;100536.47;5077724;28;20306;-69
2022/09/06 07:01:08;;;;;;;8.00;4.22;;;;;;;26.26;47.57;100500.22;5077782;28;20043;-69
2022/09/06 07:03:35;;;;;;;9.68;4.50;;;;;;;26.37;47.57;100526.50;5079276;28;20085;-69
2022/09/06 07:06:00;;;;;;;9.35;4.85;;;;;;;26.44;47.46;100532.59;5076743;28;20057;-69
2022/09/06 07:08:26;;;;;;;5.75;4.45;;;;;;;26.65;46.37;100529.13;5079176;28;20248;-69
2022/09/06 07:10:51;;;;;;;9.77;4.40;;;;;;;26.86;45.81;100532.97;5112574;27;20266;-69
2022/09/06 07:13:17;;;;;;;7.90;4.53;;;;;;;26.91;44.72;100532.22;5119311;28;20034;-69
2022/09/06 07:15:43;;;;;;;10.35;4.00;;;;;;;27.11;44.92;100527.09;5118176;28;20320;-69
2022/09/06 07:18:09;;;;;;;16.48;4.30;;;;;;;27.14;44.94;100528.50;5115172;28;20030;-69
2022/09/06 07:20:34;;;;;;;5.80;3.83;;;;;;;27.01;45.22;100518.78;5119370;28;20109;-69
2022/09/06 07:23:07;;;;;;;7.18;3.95;;;;;;;27.10;45.26;100525.47;5118415;28;20252;-69
2022/09/06 07:25:33;;;;;;;6.75;4.00;;;;;;;27.58;43.98;100511.09;5115991;28;20127;-69
2022/09/06 07:28:00;;;;;;;12.20;4.38;;;;;;;27.34;43.88;100510.53;5100648;28;20090;-69
2022/09/06 07:30:27;;;;;;;6.95;3.85;;;;;;;27.30;43.42;100517.56;5118264;28;20058;-68
2022/09/06 07:32:52;;;;;;;6.85;3.92;;;;;;;26.95;44.90;100501.56;5118898;28;20032;-69
2022/09/06 07:35:19;;;;;;;9.20;3.85;;;;;;;27.41;42.58;100518.50;5118797;28;20132;-69
2022/09/06 07:37:59;;;;;;;9.50;4.10;;;;;;;27.20;43.75;100519.34;5118171;28;20031;-69
2022/09/06 07:40:26;;;;;;;9.88;5.10;;;;;;;27.19;44.21;100518.50;5115836;28;20051;-68
2022/09/06 07:42:55;;;;;;;7.32;4.40;;;;;;;26.90;44.92;100515.06;5119269;28;20039;-69
2022/09/06 07:45:20;;;;;;;11.00;4.43;;;;;;;27.15;44.02;100516.56;5118345;28;20131;-69
2022/09/06 07:47:57;;;;;;;10.00;4.63;;;;;;;27.30;44.15;100520.28;5118438;28;20048;-69
2022/09/06 07:50:24;;;;;;;10.27;4.57;;;;;;;26.90;44.57;100514.25;5115596;28;20106;-69
2022/09/06 07:52:49;;;;;;;11.48;4.10;;;;;;;26.68;44.81;100523.19;5119202;28;20035;-68
2022/09/06 07:55:15;;;;;;;10.07;5.35;;;;;;;26.53;44.26;100522.97;5118376;28;20069;-69
2022/09/06 07:57:40;;;;;;;12.85;3.97;;;;;;;27.11;43.41;100524.38;5118247;28;20067;-69
2022/09/06 08:00:07;;;;;;;12.18;4.15;;;;;;;27.03;42.29;100513.94;5117393;28;20039;-69
2022/09/06 08:02:32;;;;;;;8.18;3.80;;;;;;;27.06;43.21;100521.59;5118600;28;20275;-68
2022/09/06 08:04:58;;;;;;;8.73;3.67;;;;;;;27.44;42.60;100509.03;5117343;28;20039;-68
2022/09/06 08:07:24;;;;;;;11.13;3.97;;;;;;;27.68;41.37;100502.25;5099564;28;20276;-69
2022/09/06 08:09:50;;;;;;;6.45;3.55;;;;;;;27.73;41.31;100501.47;5118617;28;20040;-69
2022/09/06 08:12:17;;;;;;;6.93;3.03;;;;;;;27.55;41.63;100500.72;5118020;28;20057;-68
2022/09/06 08:14:43;;;;;;;5.60;3.45;;;;;;;27.77;40.80;100489.00;5118302;28;20095;-69
2022/09/06 08:17:08;;;;;;;5.60;3.03;;;;;;;28.20;39.85;100490.78;5118383;28;20035;-69
2022/09/06 08:19:34;;;;;;;4.65;3.10;;;;;;;28.15;39.19;100488.81;5117519;28;20035;-69
2022/09/06 08:21:59;;;;;;;4.25;2.83;;;;;;;28.29;39.20;100492.78;5118386;28;20031;-69
2022/09/06 08:24:25;;;;;;;6.07;3.05;;;;;;;27.52;40.45;100490.34;5117673;28;20104;-68
2022/09/06 08:26:51;;;;;;;5.75;3.10;;;;;;;27.48;40.78;100494.66;5118535;28;20076;-69
2022/09/06 08:29:17;;;;;;;7.97;3.40;;;;;;;27.75;40.35;100491.97;5116920;28;20031;-69
2022/09/06 08:31:44;;;;;;;9.25;3.88;;;;;;;27.62;41.36;100459.75;5119309;28;20619;-69
2022/09/06 08:34:11;;;;;;;9.32;4.30;;;;;;;28.31;40.14;100473.47;5099943;28;20027;-69
2022/09/06 08:36:37;;;;;;;5.95;3.72;;;;;;;28.65;38.91;100462.22;5117866;28;20337;-69
2022/09/06 08:39:04;;;;;;;9.57;3.80;;;;;;;28.93;38.68;100472.75;5118226;28;20099;-68
2022/09/06 08:41:36;;;;;;;6.70;3.78;;;;;;;28.98;37.75;100461.88;5117497;28;20032;-69
2022/09/06 08:44:03;;;;;;;8.82;4.03;;;;;;;28.83;38.78;100468.09;5114850;28;20042;-69
2022/09/06 08:46:36;;;;;;;6.15;4.05;;;;;;;28.08;39.48;100465.59;5118467;28;20317;-69
2022/09/06 08:49:02;;;;;;;8.88;4.03;;;;;;;28.12;39.89;100453.13;5118575;28;20317;-69
2022/09/06 08:51:52;;;;;;;8.30;3.97;;;;;;;28.31;39.83;100457.13;5117907;28;20070;-69
2022/09/06 08:54:27;;;;;;;12.77;4.35;;;;;;;28.48;39.90;100455.06;5112380;28;20046;-69
2022/09/06 08:57:09;;;;;;;8.38;3.60;;;;;;;28.38;39.83;100446.00;5115063;28;20036;-69
2022/09/06 08:59:41;;;;;;;13.70;3.92;;;;;;;28.68;39.20;100438.00;5103248;28;20032;-69
2022/09/06 09:02:19;;;;;;;9.68;3.55;;;;;;;28.56;38.67;100438.22;5114729;28;20066;-69
2022/09/06 09:04:56;;;;;;;7.97;4.22;;;;;;;28.67;38.36;100432.81;5121691;28;20046;-69
2022/09/06 09:07:37;;;;;;;6.45;3.58;;;;;;;28.72;39.41;100428.22;5121954;28;20283;-69
2022/09/06 09:10:11;;;;;;;9.10;3.30;;;;;;;28.69;39.09;100428.75;5121796;28;20028;-68
2022/09/06 09:12:44;;;;;;;9.27;3.65;;;;;;;28.74;39.55;100427.94;5121703;27;20040;-69
2022/09/06 09:15:13;;;;;;;6.00;3.63;;;;;;;28.42;39.32;100428.88;5119575;28;20053;-69
2022/09/06 09:17:38;;;;;;;7.78;3.70;;;;;;;28.08;39.97;100422.84;5121637;28;20221;-69
2022/09/06 09:20:07;;;;;;;8.98;3.80;;;;;;;27.65;41.02;100424.69;5121871;28;20043;-68
2022/09/06 09:22:34;;;;;;;7.28;3.85;;;;;;;27.50;40.59;100423.69;5120746;28;20331;-69
2022/09/06 09:25:01;;;;;;;7.00;2.92;;;;;;;27.39;40.86;100421.94;5102032;28;20023;-69
2022/09/06 09:27:28;;;;;;;4.88;2.83;;;;;;;27.65;40.88;100421.13;5121298;28;20057;-68
2022/09/06 09:29:53;;;;;;;7.63;3.50;;;;;;;27.56;40.24;100418.03;5102926;28;20418;-69
2022/09/06 09:32:34;;;;;;;7.45;3.10;;;;;;;27.62;40.09;100414.31;5120645;28;20024;-68
2022/09/06 09:35:18;;;;;;;6.18;3.28;;;;;;;27.61;39.37;100414.56;5118769;28;20099;-68
2022/09/06 09:37:43;;;;;;;7.50;3.35;;;;;;;27.50;39.52;100408.19;5119195;28;20040;-69
2022/09/06 09:40:16;;;;;;;6.55;4.07;;;;;;;27.35;40.82;100391.72;5121244;28;20351;-69
2022/09/06 09:42:43;;;;;;;9.23;3.35;;;;;;;27.33;41.18;100389.25;5121292;28;20028;-69
2022/09/06 09:45:28;;;;;;;5.80;3.35;;;;;;;27.30;42.00;100388.94;5120989;28;20057;-69
2022/09/06 09:47:54;;;;;;;5.15;3.30;;;;;;;27.01;42.43;100388.31;5118838;28;20027;-69
2022/09/06 09:50:24;;;;;;;8.32;3.05;;;;;;;27.04;41.76;100390.53;5121913;28;20068;-69
2022/09/06 09:52:50;;;;;;;7.40;3.58;;;;;;;27.30;40.24;100376.16;5120613;28;20348;-69
2022/09/06 09:55:20;;;;;;;9.13;2.85;;;;;;;27.32;40.52;100374.00;5121032;28;20257;-68
2022/09/06 09:57:47;;;;;;;4.85;2.88;;;;;;;27.16;42.12;100377.66;5119391;28;20031;-69
2022/09/06 10:00:13;;;;;;;10.00;3.15;;;;;;;27.06;41.80;100379.44;5101007;28;20317;-68
2022/09/06 10:02:42;;;;;;;6.68;2.90;;;;;;;26.69;40.94;100380.84;5120842;28;20038;-69
2022/09/06 10:05:19;;;;;;;3.17;2.70;;;;;;;26.31;42.05;100376.25;5120198;28;20043;-68
2022/09/06 10:07:54;;;;;;;5.72;2.92;;;;;;;26.42;42.49;100373.69;5119792;28;20507;-69
2022/09/06 10:10:25;;;;;;;4.07;2.97;;;;;;;26.14;42.69;100385.50;5119520;28;20023;-69
2022/09/06 10:13:13;;;;;;;6.85;3.03;;;;;;;25.97;42.99;100380.88;5118367;28;20027;-69
2022/09/06 10:15:39;;;;;;;3.30;2.80;;;;;;;25.70;44.01;100382.59;5117054;28;20039;-69
2022/09/06 10:18:12;;;;;;;4.07;3.22;;;;;;;25.54;43.95;100367.09;5120748;28;20047;-69
2022/09/06 10:20:47;;;;;;;6.32;2.72;;;;;;;25.72;43.77;100366.91;5119810;28;20039;-68
2022/09/06 10:23:21;;;;;;;6.38;3.10;;;;;;;25.87;42.93;100353.56;5119388;28;20066;-69
2022/09/06 10:26:08;;;;;;;9.13;2.72;;;;;;;26.12;42.56;100355.88;5119083;28;20050;-68
2022/09/06 10:28:40;;;;;;;4.47;2.67;;;;;;;26.20;42.18;100351.91;5118231;28;20077;-68
2022/09/06 10:31:21;;;;;;;10.75;3.25;;;;;;;26.23;42.27;100346.00;5119355;28;20046;-68
2022/09/06 10:34:01;;;;;;;6.28;3.10;;;;;;;26.36;43.23;100342.94;5117441;28;20039;-68
2022/09/06 10:36:59;;;;;;;5.03;2.83;;;;;;;26.70;43.16;100332.78;5117920;28;20039;-68
2022/09/06 10:39:36;;;;;;;4.10;2.67;;;;;;;26.83;43.20;100324.25;5119522;28;20029;-68
2022/09/06 10:42:27;;;;;;;2.88;2.38;;;;;;;27.07;41.46;100332.16;5119795;28;20329;-69
2022/09/06 10:45:15;;;;;;;6.97;2.67;;;;;;;26.78;41.78;100328.78;5120025;28;20328;-68
2022/09/06 10:48:10;;;;;;;4.90;2.80;;;;;;;26.42;42.00;100322.94;5118895;28;20050;-69
2022/09/06 10:50:51;;;;;;;4.63;2.60;;;;;;;26.26;42.44;100323.78;5091890;28;20724;-68
2022/09/06 10:53:41;;;;;;;10.40;2.40;;;;;;;26.28;42.84;100318.91;5100393;28;20228;-68
2022/09/06 10:56:15;;;;;;;6.78;2.55;;;;;;;26.43;42.04;100319.16;5119011;28;20047;-68
2022/09/06 10:58:51;;;;;;;5.30;2.60;;;;;;;26.15;41.80;100319.28;5099819;28;20034;-68
2022/09/06 11:01:45;;;;;;;5.25;2.22;;;;;;;26.13;42.07;100313.28;5118638;28;20043;-69
2022/09/06 11:04:21;;;;;;;2.88;2.03;;;;;;;26.13;40.90;100313.28;5096708;28;20292;-69
2022/09/06 11:06:51;;;;;;;6.90;2.22;;;;;;;26.43;40.46;100311.00;5119773;28;20054;-68
2022/09/06 11:09:29;;;;;;;5.43;2.20;;;;;;;26.34;39.67;100307.91;5119122;28;20092;-68
2022/09/06 11:12:26;;;;;;;3.15;1.90;;;;;;;26.29;39.02;100306.97;5119918;28;20035;-68
2022/09/06 11:14:51;;;;;;;2.22;1.98;;;;;;;26.33;37.51;100311.69;5116171;28;20027;-69
2022/09/06 11:17:19;;;;;;;4.60;1.90;;;;;;;26.41;37.28;100307.72;5120116;28;20057;-68
2022/09/06 11:20:11;;;;;;;2.88;1.90;;;;;;;26.22;37.25;100303.63;5100335;28;20061;-68
2022/09/06 11:22:37;;;;;;;3.97;1.98;;;;;;;26.39;38.34;100307.16;5096359;28;20251;-68
2022/09/06 11:25:24;;;;;;;4.55;2.40;;;;;;;26.11;38.98;100299.97;5119168;28;20039;-68
2022/09/06 11:27:53;;;;;;;4.40;2.05;;;;;;;26.12;38.75;100300.78;5119584;28;20190;-68
2022/09/06 11:30:19;;;;;;;3.85;1.98;;;;;;;26.25;38.02;100290.38;5119144;28;20039;-68
2022/09/06 11:32:48;;;;;;;2.55;1.85;;;;;;;26.44;38.78;100284.66;5118108;28;20038;-69